Time;durP1;ratioP1;P1;durP2;ratioP2;P2;SDS_P1;SDS_P2;PMS_P1;PMS_P2;Temp;Humidity;BMP_temperature;BMP_pressure;BME280_temperature;BME280_humidity;BME280_pressure;Samples;Min_cycle;Max_cycle;Signal;HPM_P1;HPM_P2
2023/01/28 00:01:50;;;;;;;11.10;9.30;;;2.20;99.90;;;;;;6135628;23;20493;-71
2023/01/28 00:04:20;;;;;;;11.87;10.87;;;2.20;99.90;;;;;;6135465;23;20398;-71
2023/01/28 00:06:48;;;;;;;10.90;10.00;;;2.20;99.90;;;;;;6135334;23;20421;-71
2023/01/28 00:09:16;;;;;;;11.07;10.07;;;2.20;99.90;;;;;;6135329;23;20733;-71
2023/01/28 00:11:44;;;;;;;9.63;8.73;;;2.20;99.90;;;;;;6135284;23;20461;-71
2023/01/28 00:14:12;;;;;;;10.73;9.80;;;2.20;99.90;;;;;;6135444;23;20405;-71
2023/01/28 00:16:41;;;;;;;10.00;9.00;;;2.20;99.90;;;;;;6123862;23;20443;-71
2023/01/28 00:19:09;;;;;;;9.97;9.10;;;2.20;99.90;;;;;;6123951;23;20827;-71
2023/01/28 00:21:38;;;;;;;10.57;9.67;;;2.20;99.90;;;;;;6135448;23;20699;-71
2023/01/28 00:24:08;;;;;;;10.30;9.40;;;2.20;99.90;;;;;;6135033;23;20404;-71
2023/01/28 00:26:36;;;;;;;9.80;8.83;;;2.20;99.90;;;;;;6125707;23;20411;-71
2023/01/28 00:29:05;;;;;;;10.20;9.30;;;2.10;99.90;;;;;;6123771;23;20444;-71
2023/01/28 00:31:34;;;;;;;9.57;8.77;;;2.20;99.90;;;;;;6123952;23;20417;-71
2023/01/28 00:34:02;;;;;;;10.80;9.90;;;2.20;99.90;;;;;;6135375;23;20488;-71
2023/01/28 00:36:30;;;;;;;11.50;10.30;;;2.20;99.90;;;;;;6123748;23;20411;-71
2023/01/28 00:39:00;;;;;;;10.70;9.70;;;2.20;99.90;;;;;;6124597;23;20416;-71
2023/01/28 00:41:29;;;;;;;11.43;9.93;;;2.10;99.90;;;;;;6136320;23;20494;-71
2023/01/28 00:43:59;;;;;;;9.90;9.10;;;2.10;99.90;;;;;;6125222;23;20409;-72
2023/01/28 00:46:27;;;;;;;10.00;9.30;;;2.20;99.90;;;;;;6124354;23;20430;-71
2023/01/28 00:48:55;;;;;;;10.90;9.93;;;2.10;99.90;;;;;;6135323;23;20429;-71
2023/01/28 00:51:23;;;;;;;10.30;9.40;;;2.10;99.90;;;;;;6124296;23;20418;-71
2023/01/28 00:53:51;;;;;;;11.47;10.47;;;2.10;99.90;;;;;;6123894;23;20422;-71
2023/01/28 00:56:21;;;;;;;11.83;10.70;;;2.10;99.90;;;;;;6123963;23;20812;-71
2023/01/28 00:58:49;;;;;;;13.20;11.93;;;2.10;99.90;;;;;;6123736;23;20499;-71
2023/01/28 01:01:19;;;;;;;12.27;11.30;;;2.10;99.90;;;;;;6134998;23;20397;-71
2023/01/28 01:03:53;;;;;;;15.87;14.57;;;2.10;99.90;;;;;;6123650;23;20410;-71
2023/01/28 01:06:22;;;;;;;12.40;11.30;;;2.10;99.90;;;;;;6123722;23;20441;-71
2023/01/28 01:08:50;;;;;;;11.53;10.43;;;2.10;99.90;;;;;;6134905;23;20474;-71
2023/01/28 01:11:19;;;;;;;11.77;10.40;;;2.10;99.90;;;;;;6123662;23;20427;-71
2023/01/28 01:13:53;;;;;;;9.97;9.20;;;2.10;99.90;;;;;;6123480;23;20428;-71
2023/01/28 01:16:23;;;;;;;11.77;10.77;;;2.10;99.90;;;;;;6123539;23;20862;-71
2023/01/28 01:18:52;;;;;;;11.37;10.27;;;2.10;99.90;;;;;;6123548;23;20445;-71
2023/01/28 01:21:23;;;;;;;12.93;11.73;;;2.00;99.90;;;;;;6134815;23;20398;-71
2023/01/28 01:23:52;;;;;;;14.27;13.07;;;2.10;99.90;;;;;;6123720;23;20423;-71
2023/01/28 01:26:21;;;;;;;16.40;14.70;;;2.10;99.90;;;;;;6134717;23;20385;-71
2023/01/28 01:28:52;;;;;;;13.73;12.37;;;2.00;99.90;;;;;;6123432;23;20448;-71
2023/01/28 01:31:21;;;;;;;14.47;13.27;;;2.00;99.90;;;;;;6134969;23;20388;-72
2023/01/28 01:33:51;;;;;;;15.00;13.70;;;2.00;99.90;;;;;;6126003;23;20511;-71
2023/01/28 01:36:20;;;;;;;15.67;14.40;;;2.00;99.90;;;;;;6125276;23;20508;-71
2023/01/28 01:38:53;;;;;;;17.23;15.60;;;2.00;99.90;;;;;;6125458;23;20431;-71
2023/01/28 01:41:28;;;;;;;16.57;15.17;;;2.00;99.90;;;;;;6127160;23;20404;-71
2023/01/28 01:43:59;;;;;;;16.80;15.40;;;2.00;99.90;;;;;;6125562;23;20425;-71
2023/01/28 01:46:35;;;;;;;16.90;15.50;;;2.00;99.90;;;;;;6125275;23;20427;-71
2023/01/28 01:49:12;;;;;;;17.33;15.60;;;2.00;99.90;;;;;;6125162;23;20434;-71
2023/01/28 01:51:41;;;;;;;17.50;16.00;;;2.00;99.90;;;;;;6125417;23;20405;-71
2023/01/28 01:54:09;;;;;;;16.77;15.37;;;2.00;99.90;;;;;;6125268;23;20421;-71
2023/01/28 01:56:40;;;;;;;17.07;15.57;;;2.00;99.90;;;;;;6125278;23;20479;-71
2023/01/28 01:59:13;;;;;;;16.20;14.70;;;2.00;99.90;;;;;;6125366;23;20401;-71
2023/01/28 02:01:49;;;;;;;15.67;14.27;;;2.00;99.90;;;;;;6136428;23;20382;-71
2023/01/28 02:04:22;;;;;;;16.33;14.93;;;2.00;99.90;;;;;;6125352;23;20423;-71
2023/01/28 02:06:51;;;;;;;18.30;16.60;;;2.00;99.90;;;;;;6136414;23;20417;-71
2023/01/28 02:09:25;;;;;;;17.93;16.43;;;2.00;99.90;;;;;;6125088;23;20840;-71
2023/01/28 02:11:55;;;;;;;17.33;15.87;;;2.00;99.90;;;;;;6125112;23;20412;-71
2023/01/28 02:14:28;;;;;;;16.80;15.40;;;2.00;99.90;;;;;;6125059;23;20820;-71
2023/01/28 02:17:00;;;;;;;18.20;16.80;;;2.00;99.90;;;;;;6125000;23;20434;-71
2023/01/28 02:19:33;;;;;;;19.20;17.33;;;1.90;99.90;;;;;;6125145;23;20413;-71
2023/01/28 02:22:12;;;;;;;18.60;16.77;;;1.90;99.90;;;;;;6124930;23;20442;-71
2023/01/28 02:25:01;;;;;;;18.00;16.50;;;1.90;99.90;;;;;;6136384;23;20440;-71
2023/01/28 02:27:35;;;;;;;17.30;15.90;;;1.90;99.90;;;;;;6136374;23;20420;-71
2023/01/28 02:30:10;;;;;;;18.07;16.13;;;1.80;99.90;;;;;;6136175;23;20763;-71
2023/01/28 02:32:43;;;;;;;18.70;17.20;;;1.80;99.90;;;;;;6124957;23;20746;-71
2023/01/28 02:35:18;;;;;;;18.20;16.50;;;1.80;99.90;;;;;;6124991;23;20416;-71
2023/01/28 02:37:53;;;;;;;18.70;17.10;;;1.80;99.90;;;;;;6124757;23;20547;-71
2023/01/28 02:40:26;;;;;;;18.07;16.53;;;1.80;99.90;;;;;;6125025;23;20415;-71
2023/01/28 02:42:56;;;;;;;19.00;17.17;;;1.70;99.90;;;;;;6124839;23;20418;-71
2023/01/28 02:47:56;;;;;;;18.00;16.40;;;1.70;99.90;;;;;;6124329;23;20490;-71
2023/01/28 02:48:22;;;;;;;19.00;17.10;;;1.70;99.90;;;;;;6124913;23;20486;-72
2023/01/28 02:51:01;;;;;;;20.20;18.50;;;1.70;99.90;;;;;;6125173;23;20420;-71
2023/01/28 02:53:42;;;;;;;19.30;17.60;;;1.60;99.90;;;;;;6124847;23;20437;-71
2023/01/28 02:56:20;;;;;;;19.27;17.40;;;1.60;99.90;;;;;;6124820;23;20471;-71
2023/01/28 02:58:59;;;;;;;18.67;16.97;;;1.60;99.90;;;;;;6124579;23;20738;-71
2023/01/28 03:01:35;;;;;;;19.93;18.23;;;1.60;99.90;;;;;;6124775;23;20405;-71
2023/01/28 03:04:08;;;;;;;19.50;17.60;;;1.50;99.90;;;;;;6124651;23;20411;-71
2023/01/28 03:06:41;;;;;;;19.67;17.87;;;1.50;99.90;;;;;;6124578;23;20480;-71
2023/01/28 03:09:25;;;;;;;19.10;17.33;;;1.50;99.90;;;;;;6135799;23;20427;-71
2023/01/28 03:37:33;;;;;;;19.47;17.80;;;1.40;99.90;;;;;;6124061;23;20470;-71
2023/01/28 03:40:22;;;;;;;19.77;17.93;;;1.30;99.90;;;;;;6125520;23;20447;-71
2023/01/28 03:42:51;;;;;;;19.47;17.57;;;1.30;99.90;;;;;;6135432;23;20399;-71
2023/01/28 03:45:33;;;;;;;20.50;18.60;;;1.40;99.90;;;;;;6135506;23;20417;-71
2023/01/28 03:48:04;;;;;;;20.23;18.43;;;1.30;99.90;;;;;;6124235;23;20443;-71
2023/01/28 03:50:35;;;;;;;22.37;20.33;;;1.40;99.90;;;;;;6124153;23;20442;-71
2023/01/28 03:53:12;;;;;;;19.27;17.47;;;1.40;99.90;;;;;;6124280;23;20411;-71
2023/01/28 03:55:49;;;;;;;20.47;18.57;;;1.30;99.90;;;;;;6124373;23;20409;-71
2023/01/28 03:58:19;;;;;;;20.87;18.77;;;1.30;99.90;;;;;;6124206;23;20502;-71
2023/01/28 04:00:47;;;;;;;21.70;19.60;;;1.30;99.90;;;;;;6124117;23;20452;-71
2023/01/28 04:03:18;;;;;;;21.43;19.40;;;1.30;99.90;;;;;;6135416;23;20411;-71
2023/01/28 04:06:11;;;;;;;19.87;17.97;;;1.40;99.90;;;;;;6125403;23;20419;-71
2023/01/28 04:09:05;;;;;;;18.87;17.17;;;1.40;99.90;;;;;;6125424;23;20815;-71
2023/01/28 04:11:59;;;;;;;19.70;17.70;;;1.40;99.90;;;;;;6096207;23;20412;-71
2023/01/28 04:14:33;;;;;;;22.03;19.83;;;1.40;99.90;;;;;;6124070;23;20481;-71
2023/01/28 04:17:09;;;;;;;19.90;18.07;;;1.40;99.90;;;;;;6123874;23;20440;-71
2023/01/28 04:19:39;;;;;;;20.70;18.70;;;1.40;99.90;;;;;;6123913;23;20412;-71
2023/01/28 04:22:11;;;;;;;22.77;20.73;;;1.30;99.90;;;;;;6124032;23;20785;-71
2023/01/28 04:24:41;;;;;;;21.40;19.20;;;1.40;99.90;;;;;;6123857;23;20416;-71
2023/01/28 04:27:09;;;;;;;21.63;19.63;;;1.40;99.90;;;;;;6123877;23;20442;-71
2023/01/28 04:29:37;;;;;;;20.93;19.07;;;1.40;99.90;;;;;;6123846;23;20443;-71
2023/01/28 04:32:24;;;;;;;22.03;19.83;;;1.30;99.90;;;;;;6125372;23;20444;-71
2023/01/28 04:35:10;;;;;;;23.60;21.50;;;1.30;99.90;;;;;;6124047;23;20408;-71
2023/01/28 04:37:51;;;;;;;20.63;18.70;;;1.30;99.90;;;;;;6123850;23;20437;-71
2023/01/28 04:40:49;;;;;;;20.50;18.50;;;1.30;99.90;;;;;;6112042;23;20407;-71
2023/01/28 04:43:36;;;;;;;20.60;18.63;;;1.30;99.90;;;;;;6123965;23;20419;-71
2023/01/28 04:46:19;;;;;;;20.33;18.50;;;1.30;99.90;;;;;;6135319;23;20423;-71
2023/01/28 04:49:00;;;;;;;19.47;17.47;;;1.20;99.90;;;;;;6124206;23;20424;-71
2023/01/28 04:51:52;;;;;;;21.20;19.23;;;1.20;99.90;;;;;;6124945;23;20414;-71
2023/01/28 04:54:42;;;;;;;19.37;17.47;;;1.20;99.90;;;;;;6124534;23;20411;-71
2023/01/28 04:57:11;;;;;;;19.63;17.83;;;1.20;99.90;;;;;;6124022;23;20453;-71
2023/01/28 04:59:39;;;;;;;20.30;18.17;;;1.10;99.90;;;;;;6123736;23;20504;-71
2023/01/28 05:02:07;;;;;;;18.47;16.63;;;1.10;99.90;;;;;;6123730;23;20457;-71
2023/01/28 05:04:36;;;;;;;17.67;15.87;;;1.10;99.90;;;;;;6123572;23;20435;-71
2023/01/28 05:07:04;;;;;;;17.00;15.50;;;1.10;99.90;;;;;;6123468;23;20960;-71
2023/01/28 05:09:33;;;;;;;20.13;18.30;;;1.10;99.90;;;;;;6124882;23;20808;-71
2023/01/28 05:12:04;;;;;;;18.13;16.40;;;1.10;99.90;;;;;;6125655;23;20419;-71
2023/01/28 05:14:33;;;;;;;18.23;16.50;;;1.10;99.90;;;;;;6127278;23;20754;-71
2023/01/28 05:17:06;;;;;;;17.80;16.30;;;1.10;99.90;;;;;;6125679;23;20494;-71
2023/01/28 05:19:35;;;;;;;16.67;15.10;;;1.10;99.90;;;;;;6125496;23;20428;-71
2023/01/28 05:22:07;;;;;;;21.00;18.73;;;1.10;99.90;;;;;;6125543;23;20412;-71
2023/01/28 05:24:41;;;;;;;20.17;18.37;;;1.00;99.90;;;;;;6125678;23;20502;-71
2023/01/28 05:27:12;;;;;;;21.50;19.60;;;1.00;99.90;;;;;;6125437;23;20770;-71
2023/01/28 05:29:40;;;;;;;23.77;21.37;;;1.00;99.90;;;;;;6125385;23;20450;-71
2023/01/28 05:32:09;;;;;;;22.83;20.63;;;1.00;99.90;;;;;;6136888;23;20403;-71
2023/01/28 05:34:37;;;;;;;22.03;20.00;;;0.90;99.90;;;;;;6125404;23;20413;-71
2023/01/28 05:37:11;;;;;;;24.27;22.07;;;0.90;99.90;;;;;;6125502;23;20469;-71
2023/01/28 05:39:39;;;;;;;23.87;21.77;;;0.90;99.90;;;;;;6125210;23;20417;-71
2023/01/28 05:42:08;;;;;;;22.60;20.50;;;0.90;99.90;;;;;;6125366;23;20457;-71
2023/01/28 05:44:42;;;;;;;22.70;20.27;;;0.80;99.90;;;;;;6125390;23;20806;-71
2023/01/28 05:47:23;;;;;;;24.27;21.97;;;0.80;99.90;;;;;;6125272;23;20449;-71
2023/01/28 05:49:59;;;;;;;24.80;21.97;;;0.80;99.90;;;;;;6125204;23;20507;-71
2023/01/28 05:52:27;;;;;;;23.77;21.57;;;0.70;99.90;;;;;;6136571;23;20413;-71
2023/01/28 05:54:56;;;;;;;22.93;20.53;;;0.70;99.90;;;;;;6125360;23;20908;-71
2023/01/28 05:57:26;;;;;;;23.83;21.63;;;0.70;99.90;;;;;;6125207;23;20438;-71
2023/01/28 05:59:55;;;;;;;22.53;20.20;;;0.60;99.90;;;;;;6125432;23;20464;-71
2023/01/28 06:02:24;;;;;;;21.20;19.00;;;0.60;99.90;;;;;;6125261;23;20965;-71
2023/01/28 06:04:55;;;;;;;22.40;20.20;;;0.60;99.90;;;;;;6125299;23;20491;-71
2023/01/28 06:07:23;;;;;;;22.00;19.60;;;0.50;99.90;;;;;;6125063;23;20472;-71
2023/01/28 06:09:52;;;;;;;22.83;20.20;;;0.50;99.90;;;;;;6124892;23;20504;-71
2023/01/28 06:12:21;;;;;;;22.33;20.03;;;0.50;99.90;;;;;;6125230;23;20471;-71
2023/01/28 06:15:11;;;;;;;21.80;19.60;;;0.40;99.90;;;;;;6125174;23;20417;-71
2023/01/28 06:17:57;;;;;;;21.53;19.33;;;0.40;99.90;;;;;;6125076;23;20456;-71
2023/01/28 06:20:31;;;;;;;22.07;19.70;;;0.30;99.90;;;;;;6124369;23;20904;-71
2023/01/28 06:23:00;;;;;;;23.40;21.10;;;0.30;99.90;;;;;;6124919;23;20799;-71
2023/01/28 06:25:29;;;;;;;24.77;22.10;;;0.30;99.90;;;;;;6125163;23;20449;-71
2023/01/28 06:28:02;;;;;;;24.30;21.83;;;0.30;99.90;;;;;;6125183;23;20552;-71
2023/01/28 06:30:32;;;;;;;24.57;22.07;;;0.20;99.90;;;;;;6127196;23;20440;-71
2023/01/28 06:33:00;;;;;;;24.27;21.77;;;0.20;99.90;;;;;;6125410;23;20806;-71
2023/01/28 06:35:28;;;;;;;24.80;22.30;;;0.20;99.90;;;;;;6136510;23;20398;-70
2023/01/28 06:37:57;;;;;;;25.90;23.10;;;0.10;99.90;;;;;;6124791;23;20438;-71
2023/01/28 06:40:25;;;;;;;24.07;21.70;;;0.10;99.90;;;;;;6127079;23;20411;-71
2023/01/28 06:42:53;;;;;;;25.67;22.87;;;0.10;99.90;;;;;;6126850;23;20424;-71
2023/01/28 06:45:21;;;;;;;23.10;20.70;;;0.00;99.90;;;;;;6124873;23;20432;-71
2023/01/28 06:47:51;;;;;;;24.53;21.93;;;0.00;99.90;;;;;;6135785;23;20910;-70
2023/01/28 06:50:19;;;;;;;22.93;20.53;;;0.00;99.90;;;;;;6135768;23;20869;-71
2023/01/28 06:52:47;;;;;;;24.23;21.73;;;-0.10;99.90;;;;;;6134561;23;20462;-71
2023/01/28 06:55:15;;;;;;;25.80;22.60;;;-0.10;99.90;;;;;;6135296;23;20882;-71
2023/01/28 06:57:44;;;;;;;24.90;21.30;;;-0.10;99.90;;;;;;6136454;23;20423;-71
2023/01/28 07:00:14;;;;;;;25.77;23.03;;;-0.20;99.90;;;;;;6125723;23;20417;-71
2023/01/28 07:02:43;;;;;;;27.27;22.43;;;-0.20;99.90;;;;;;6137837;23;20442;-70
2023/01/28 07:05:13;;;;;;;26.90;24.00;;;-0.20;99.90;;;;;;6127546;23;20473;-71
2023/01/28 07:07:41;;;;;;;29.47;24.27;;;1.40;99.90;;;;;;6134166;23;20516;-70
2023/01/28 07:10:10;;;;;;;31.43;28.33;;;-0.30;99.90;;;;;;6122394;23;20472;-70
2023/01/28 07:12:39;;;;;;;29.77;26.40;;;-0.30;99.90;;;;;;6133757;23;20812;-71
2023/01/28 07:15:09;;;;;;;32.13;28.70;;;-0.30;99.90;;;;;;6124181;23;20414;-70
2023/01/28 07:17:39;;;;;;;35.93;31.67;;;-0.40;99.90;;;;;;6131551;23;20422;-71
2023/01/28 07:20:10;;;;;;;33.67;30.03;;;-0.40;99.90;;;;;;6122424;23;20397;-70
2023/01/28 07:22:41;;;;;;;34.80;31.00;;;-0.40;99.90;;;;;;6123936;23;20912;-70
2023/01/28 07:25:10;;;;;;;35.50;31.20;;;-0.40;99.90;;;;;;6134094;23;20412;-71
2023/01/28 07:27:38;;;;;;;34.60;30.53;;;-0.40;99.90;;;;;;6133829;23;20910;-71
2023/01/28 07:30:08;;;;;;;33.43;29.93;;;-0.40;99.90;;;;;;6133713;23;20404;-71
2023/01/28 07:32:36;;;;;;;33.83;30.23;;;-0.40;99.90;;;;;;6121798;23;20464;-71
2023/01/28 07:35:04;;;;;;;32.43;29.10;;;-0.40;99.90;;;;;;6124111;23;20414;-71
2023/01/28 07:37:32;;;;;;;36.00;32.20;;;-0.50;99.90;;;;;;6133476;23;20421;-71
2023/01/28 07:40:02;;;;;;;38.20;34.37;;;-0.40;99.90;;;;;;6121903;23;20464;-71
2023/01/28 07:42:30;;;;;;;39.33;35.50;;;-0.40;99.90;;;;;;6123627;23;20409;-71
2023/01/28 07:45:04;;;;;;;40.00;34.10;;;-0.40;99.90;;;;;;6122298;23;20409;-71
2023/01/28 07:47:32;;;;;;;55.27;41.67;;;-0.40;99.90;;;;;;6123950;23;20429;-71
2023/01/28 07:50:01;;;;;;;44.57;37.70;;;-0.40;99.90;;;;;;6135514;23;20489;-71
2023/01/28 07:52:29;;;;;;;37.50;32.60;;;-0.40;99.90;;;;;;6126661;23;20440;-71
2023/01/28 07:54:57;;;;;;;37.90;33.50;;;-0.40;99.90;;;;;;6125290;23;20729;-70
2023/01/28 07:57:29;;;;;;;39.17;35.20;;;-0.40;99.90;;;;;;6136495;23;20496;-70
2023/01/28 07:59:57;;;;;;;36.03;32.13;;;-0.40;99.90;;;;;;6125359;23;20508;-71
2023/01/28 08:02:25;;;;;;;39.03;33.00;;;-0.40;99.90;;;;;;6136497;23;20408;-71
2023/01/28 08:04:53;;;;;;;37.37;33.13;;;-0.30;99.90;;;;;;6136600;23;20786;-71
2023/01/28 08:07:22;;;;;;;36.70;32.80;;;-0.30;99.90;;;;;;6136450;23;20441;-71
2023/01/28 08:09:51;;;;;;;38.20;32.70;;;-0.30;99.90;;;;;;6136577;23;20401;-71
2023/01/28 08:12:19;;;;;;;36.33;31.33;;;-0.30;99.90;;;;;;6136545;23;20429;-71
2023/01/28 08:14:48;;;;;;;35.63;31.10;;;-0.30;99.90;;;;;;6136972;23;20397;-71
2023/01/28 08:17:17;;;;;;;34.63;31.00;;;-0.20;99.90;;;;;;6136468;23;20431;-71
2023/01/28 08:19:45;;;;;;;33.63;29.93;;;-0.20;99.90;;;;;;6125470;23;20893;-71
2023/01/28 08:22:13;;;;;;;32.73;28.20;;;-0.20;99.90;;;;;;6125159;23;20414;-70
2023/01/28 08:24:41;;;;;;;33.40;29.63;;;-0.20;99.90;;;;;;6125058;23;20422;-70
2023/01/28 08:27:09;;;;;;;30.20;26.90;;;-0.20;99.90;;;;;;6136732;23;20435;-70
2023/01/28 08:29:37;;;;;;;32.07;27.43;;;-0.20;99.90;;;;;;6127268;23;20419;-70
2023/01/28 08:32:06;;;;;;;31.07;27.97;;;-0.10;99.90;;;;;;6125097;23;20776;-70
2023/01/28 08:34:34;;;;;;;34.60;30.00;;;-0.10;99.90;;;;;;6136550;23;20398;-70
2023/01/28 08:37:04;;;;;;;29.67;26.37;;;-0.10;99.90;;;;;;6136688;23;20421;-70
2023/01/28 08:39:32;;;;;;;26.70;22.77;;;-0.10;99.90;;;;;;6136523;23;20404;-70
2023/01/28 08:42:00;;;;;;;30.37;27.03;;;-0.10;99.90;;;;;;6127269;23;20413;-70
2023/01/28 08:44:28;;;;;;;28.90;26.00;;;-0.10;99.90;;;;;;6134351;23;20397;-71
2023/01/28 08:46:56;;;;;;;31.57;27.43;;;-0.10;99.90;;;;;;6126437;23;20449;-70
2023/01/28 08:49:26;;;;;;;30.80;27.60;;;-0.10;99.90;;;;;;6136221;23;20397;-70
2023/01/28 08:51:54;;;;;;;30.10;25.83;;;0.00;99.90;;;;;;6136615;23;20741;-70
2023/01/28 08:54:23;;;;;;;30.40;26.33;;;0.00;99.90;;;;;;6136247;23;20448;-70
2023/01/28 08:56:52;;;;;;;31.27;27.87;;;0.00;99.90;;;;;;6125529;23;20799;-70
2023/01/28 08:59:20;;;;;;;31.60;28.30;;;0.00;99.90;;;;;;6125679;23;20405;-70
2023/01/28 09:01:48;;;;;;;31.97;28.63;;;0.10;99.90;;;;;;6126322;23;20893;-70
2023/01/28 09:04:16;;;;;;;29.73;26.30;;;0.10;99.90;;;;;;6136211;23;20493;-70
2023/01/28 09:06:45;;;;;;;30.30;26.63;;;0.10;99.90;;;;;;6136039;23;20936;-70
2023/01/28 09:09:13;;;;;;;30.90;27.60;;;0.20;99.90;;;;;;6136452;23;20425;-70
2023/01/28 09:11:41;;;;;;;28.47;25.47;;;0.20;99.90;;;;;;6126550;23;20437;-70
2023/01/28 09:14:09;;;;;;;28.80;25.40;;;0.20;99.90;;;;;;6124720;23;20418;-70
2023/01/28 09:17:09;;;;;;;28.90;25.90;;;0.20;99.90;;;;;;6135988;23;20402;-71
2023/01/28 09:19:37;;;;;;;27.43;23.90;;;0.30;99.90;;;;;;6136283;23;20457;-72
2023/01/28 09:22:06;;;;;;;27.23;24.33;;;0.30;99.90;;;;;;6136008;23;20862;-71
2023/01/28 09:24:34;;;;;;;27.60;24.70;;;0.40;99.90;;;;;;6124852;23;20425;-70
2023/01/28 09:27:06;;;;;;;28.53;25.63;;;0.40;99.90;;;;;;6124699;23;20472;-71
2023/01/28 09:29:34;;;;;;;28.10;24.23;;;0.40;99.90;;;;;;6126737;23;20413;-70
2023/01/28 09:32:02;;;;;;;27.30;22.63;;;0.40;99.90;;;;;;6136078;23;20441;-70
2023/01/28 09:34:30;;;;;;;27.93;24.93;;;0.50;99.90;;;;;;6136949;23;20403;-70
2023/01/28 09:36:58;;;;;;;28.13;25.20;;;0.50;99.90;;;;;;6136301;23;20421;-70
2023/01/28 09:43:20;;;;;;;26.40;23.47;;;0.60;99.90;;;;;;6124760;23;20439;-70
2023/01/28 09:45:51;;;;;;;26.10;23.30;;;0.70;99.90;;;;;;6124662;23;20426;-71
2023/01/28 09:48:23;;;;;;;26.30;23.57;;;0.80;99.90;;;;;;6136269;23;20426;-71
2023/01/28 09:50:54;;;;;;;26.37;23.07;;;0.80;99.90;;;;;;6124880;23;20888;-71
2023/01/28 09:53:26;;;;;;;23.07;20.60;;;0.90;99.90;;;;;;6124567;23;20946;-70
2023/01/28 09:55:57;;;;;;;25.03;22.60;;;0.90;99.90;;;;;;6126114;23;20402;-71
2023/01/28 09:58:26;;;;;;;24.40;21.90;;;0.90;99.90;;;;;;6127950;23;20432;-71
2023/01/28 10:01:01;;;;;;;24.90;22.40;;;1.00;99.90;;;;;;6138202;23;20397;-71
2023/01/28 10:03:39;;;;;;;24.40;22.00;;;1.10;99.90;;;;;;6138862;23;20840;-72
2023/01/28 10:06:20;;;;;;;25.07;22.47;;;1.10;99.90;;;;;;6138136;23;20386;-72
2023/01/28 10:09:06;;;;;;;23.63;21.23;;;1.20;99.90;;;;;;6126438;23;20413;-71
2023/01/28 10:11:51;;;;;;;26.33;23.50;;;1.20;99.90;;;;;;6137716;23;20411;-71
2023/01/28 10:14:31;;;;;;;23.00;20.67;;;1.30;99.90;;;;;;6138121;23;20386;-71
2023/01/28 10:17:07;;;;;;;25.03;22.53;;;1.30;99.90;;;;;;6138259;23;21000;-71
2023/01/28 10:19:43;;;;;;;25.03;22.43;;;1.40;99.90;;;;;;6137480;23;20386;-71
2023/01/28 10:22:16;;;;;;;25.00;22.30;;;1.40;99.90;;;;;;6126321;23;20416;-71
2023/01/28 10:24:49;;;;;;;24.37;21.97;;;1.50;99.90;;;;;;6126073;23;20421;-71
2023/01/28 10:27:21;;;;;;;26.20;23.40;;;1.50;99.90;;;;;;6126118;23;20536;-71
2023/01/28 10:29:51;;;;;;;24.00;21.50;;;1.60;99.90;;;;;;6137599;23;20409;-72
2023/01/28 10:32:26;;;;;;;25.03;22.53;;;1.60;99.90;;;;;;6126181;23;20430;-72
2023/01/28 10:34:54;;;;;;;24.93;22.30;;;1.60;99.90;;;;;;6126268;23;20416;-71
2023/01/28 10:37:22;;;;;;;24.17;21.67;;;1.60;99.90;;;;;;6137457;23;20428;-71
2023/01/28 10:39:53;;;;;;;25.33;22.60;;;1.70;99.90;;;;;;6137465;23;20411;-72
2023/01/28 10:42:28;;;;;;;23.80;21.40;;;1.70;99.90;;;;;;6137772;23;20415;-72
2023/01/28 10:45:01;;;;;;;25.47;22.97;;;1.80;99.90;;;;;;6126228;23;20894;-72
2023/01/28 10:47:33;;;;;;;24.90;22.43;;;1.80;99.90;;;;;;6137424;23;20416;-72
2023/01/28 10:50:04;;;;;;;24.00;21.60;;;1.90;99.90;;;;;;6137745;23;20833;-71
2023/01/28 10:52:32;;;;;;;23.23;20.93;;;1.90;99.90;;;;;;6126004;23;20479;-71
2023/01/28 10:55:01;;;;;;;24.23;21.90;;;2.00;99.90;;;;;;6125913;23;20422;-71
2023/01/28 10:57:30;;;;;;;24.30;21.77;;;2.00;99.90;;;;;;6137116;23;20439;-72
2023/01/28 11:00:10;;;;;;;24.90;22.50;;;2.10;99.90;;;;;;6137314;23;20405;-72
2023/01/28 11:02:39;;;;;;;24.40;22.00;;;2.10;99.90;;;;;;6137581;23;20382;-71
2023/01/28 11:05:16;;;;;;;24.10;21.77;;;2.10;99.90;;;;;;6137392;23;20400;-72
2023/01/28 11:07:44;;;;;;;20.83;18.63;;;2.20;99.90;;;;;;6137118;23;20750;-72
2023/01/28 11:10:26;;;;;;;23.00;20.70;;;2.20;99.90;;;;;;6125803;23;20425;-72
2023/01/28 11:12:58;;;;;;;21.93;19.73;;;2.20;99.90;;;;;;6137433;23;20429;-71
2023/01/28 11:15:28;;;;;;;20.27;18.23;;;2.20;99.90;;;;;;6125814;23;20418;-71
2023/01/28 11:17:59;;;;;;;21.43;19.33;;;2.20;99.90;;;;;;6137024;23;20423;-71
2023/01/28 11:20:30;;;;;;;21.23;19.17;;;2.20;99.90;;;;;;6137191;23;20420;-71
2023/01/28 11:22:58;;;;;;;22.17;19.93;;;2.20;99.90;;;;;;6137598;23;20855;-72
2023/01/28 11:25:31;;;;;;;23.33;21.03;;;2.20;99.90;;;;;;6137527;23;20403;-72
2023/01/28 11:28:01;;;;;;;22.87;20.57;;;2.20;99.90;;;;;;6137399;23;20814;-72
2023/01/28 11:30:33;;;;;;;21.17;18.97;;;2.30;99.90;;;;;;6125922;23;20788;-71
2023/01/28 11:33:14;;;;;;;21.80;19.50;;;2.30;99.90;;;;;;6137355;23;20416;-72
2023/01/28 11:35:42;;;;;;;20.87;18.80;;;2.40;99.90;;;;;;6137294;23;20848;-71
2023/01/28 11:38:18;;;;;;;21.40;19.30;;;2.40;99.90;;;;;;6136841;23;20425;-71
2023/01/28 11:40:50;;;;;;;24.37;21.97;;;2.50;99.90;;;;;;6136950;23;20388;-72
2023/01/28 11:43:20;;;;;;;24.40;21.93;;;2.50;99.90;;;;;;6137559;23;20750;-71
2023/01/28 11:46:00;;;;;;;21.10;19.00;;;2.60;99.90;;;;;;6125662;23;20427;-72
2023/01/28 11:48:41;;;;;;;21.90;19.60;;;2.60;99.90;;;;;;6136933;23;20428;-72
2023/01/28 11:51:23;;;;;;;20.73;18.63;;;2.70;99.90;;;;;;6137373;23;20381;-72
2023/01/28 11:54:18;;;;;;;21.77;19.67;;;2.70;99.90;;;;;;6126861;23;21001;-72
2023/01/28 11:57:02;;;;;;;20.67;18.57;;;2.80;99.90;;;;;;6121158;23;20440;-72
2023/01/28 11:59:54;;;;;;;20.50;18.43;;;2.80;99.90;;;;;;6126909;23;20409;-71
2023/01/28 12:02:39;;;;;;;22.53;19.60;;;2.90;99.90;;;;;;6125647;23;20417;-72
2023/01/28 12:05:27;;;;;;;21.33;19.23;;;2.90;99.90;;;;;;6137464;23;20389;-71
2023/01/28 12:08:06;;;;;;;21.13;18.97;;;3.00;99.90;;;;;;6125255;23;20444;-72
2023/01/28 12:10:41;;;;;;;21.07;18.83;;;3.00;99.90;;;;;;6125361;23;20418;-71
2023/01/28 12:13:25;;;;;;;20.50;18.40;;;3.00;99.90;;;;;;6125121;23;20437;-71
2023/01/28 12:16:11;;;;;;;20.03;18.03;;;3.00;99.90;;;;;;6136626;23;20390;-72
2023/01/28 12:19:09;;;;;;;22.13;19.37;;;3.00;99.90;;;;;;6136124;23;20428;-71
2023/01/28 12:21:50;;;;;;;22.50;20.20;;;3.10;99.90;;;;;;6125301;23;20472;-73
2023/01/28 12:24:35;;;;;;;19.30;17.40;;;3.10;99.90;;;;;;6137318;23;20376;-71
2023/01/28 12:27:13;;;;;;;19.17;17.33;;;3.20;99.90;;;;;;6137190;23;20822;-71
2023/01/28 12:29:52;;;;;;;19.97;17.97;;;3.20;99.90;;;;;;6125122;23;20854;-71
2023/01/28 12:32:38;;;;;;;18.97;16.97;;;3.20;99.90;;;;;;6137132;23;20382;-71
2023/01/28 12:35:35;;;;;;;18.33;16.50;;;3.30;99.90;;;;;;6124975;23;20435;-71
2023/01/28 12:38:13;;;;;;;18.30;16.50;;;3.30;99.90;;;;;;6125032;23;20468;-72
2023/01/28 12:40:59;;;;;;;16.20;14.60;;;3.30;99.90;;;;;;6127005;23;20725;-71
2023/01/28 12:43:45;;;;;;;17.53;15.83;;;3.30;99.90;;;;;;6124390;23;20865;-71
2023/01/28 12:46:25;;;;;;;16.83;15.10;;;3.30;99.90;;;;;;6125044;23;20431;-71
2023/01/28 12:49:00;;;;;;;17.93;16.13;;;3.40;99.90;;;;;;6136699;23;20389;-71
2023/01/28 12:51:32;;;;;;;17.03;15.33;;;3.40;99.90;;;;;;6125034;23;20409;-71
2023/01/28 12:54:05;;;;;;;18.07;16.27;;;3.50;99.90;;;;;;6124694;23;20517;-71
2023/01/28 12:56:37;;;;;;;18.23;16.43;;;3.50;99.90;;;;;;6136822;23;20410;-71
2023/01/28 12:59:12;;;;;;;16.90;15.20;;;3.60;99.90;;;;;;6124962;23;20892;-71
2023/01/28 13:01:47;;;;;;;16.33;14.80;;;3.60;99.90;;;;;;6136658;23;20384;-71
2023/01/28 13:04:25;;;;;;;17.03;15.23;;;3.60;99.90;;;;;;6124961;23;20435;-75
2023/01/28 13:06:58;;;;;;;15.47;14.00;;;3.70;99.90;;;;;;6136441;23;20421;-72
2023/01/28 13:09:28;;;;;;;16.37;14.67;;;3.70;99.90;;;;;;6136217;23;20389;-71
2023/01/28 13:11:58;;;;;;;17.57;15.77;;;3.70;99.90;;;;;;6136933;23;20723;-72
2023/01/28 13:14:30;;;;;;;16.80;15.20;;;3.80;99.90;;;;;;6124703;23;20437;-71
2023/01/28 13:17:09;;;;;;;15.27;13.67;;;3.80;99.90;;;;;;6124694;23;20750;-71
2023/01/28 13:19:39;;;;;;;17.40;15.60;;;3.80;99.90;;;;;;6136556;23;20378;-71
2023/01/28 13:22:25;;;;;;;15.90;14.30;;;3.90;99.90;;;;;;6126665;23;20410;-71
2023/01/28 13:24:53;;;;;;;15.27;13.73;;;3.90;99.90;;;;;;6136545;23;20787;-71
2023/01/28 13:27:24;;;;;;;12.60;11.40;;;3.90;99.90;;;;;;6136258;23;20428;-72
2023/01/28 13:30:02;;;;;;;17.03;15.33;;;3.90;99.90;;;;;;6137144;23;20390;-72
2023/01/28 13:32:34;;;;;;;17.00;15.30;;;3.90;99.90;;;;;;6138425;23;20387;-71
2023/01/28 13:35:06;;;;;;;17.33;15.63;;;3.90;99.90;;;;;;6138313;23;20417;-71